createdAt,value
2018-05-07T00:01:27.688Z,17.29
2018-05-07T00:03:55.776Z,17.14
2018-05-07T00:06:23.933Z,17.13
2018-05-07T00:08:52.047Z,17.18
2018-05-07T00:11:20.161Z,17.05
2018-05-07T00:13:48.293Z,17.06
2018-05-07T00:16:16.410Z,17.07
2018-05-07T00:18:44.509Z,17.01
2018-05-07T00:21:12.664Z,16.96
2018-05-07T00:23:40.781Z,16.86
2018-05-07T00:26:08.893Z,16.88
2018-05-07T00:28:37.041Z,16.83
2018-05-07T00:31:05.185Z,16.85
2018-05-07T00:33:33.292Z,16.80
2018-05-07T00:36:01.494Z,16.81
2018-05-07T00:38:29.532Z,16.73
2018-05-07T00:40:57.639Z,16.71
2018-05-07T00:43:25.826Z,16.71
2018-05-07T00:45:53.931Z,16.66
2018-05-07T00:48:22.051Z,16.62
2018-05-07T00:50:50.185Z,16.58
2018-05-07T00:53:18.297Z,16.56
2018-05-07T00:55:46.409Z,16.45
2018-05-07T00:58:14.541Z,16.47
2018-05-07T01:00:42.665Z,16.42
2018-05-07T01:03:10.762Z,16.44
2018-05-07T01:05:38.898Z,16.40
2018-05-07T01:08:07.013Z,16.40
2018-05-07T01:10:35.114Z,16.36
2018-05-07T01:13:03.231Z,16.32
2018-05-07T01:15:31.377Z,16.26
2018-05-07T01:17:59.499Z,16.27
2018-05-07T01:20:27.602Z,16.25
2018-05-07T01:22:55.726Z,16.26
2018-05-07T01:25:23.859Z,16.21
2018-05-07T01:27:51.985Z,16.16
2018-05-07T01:30:20.101Z,16.01
2018-05-07T01:32:48.198Z,15.91
2018-05-07T01:35:16.350Z,15.98
2018-05-07T01:37:44.467Z,16.01
2018-05-07T01:40:12.562Z,16.05
2018-05-07T01:42:41.342Z,16.04
2018-05-07T01:45:09.448Z,15.94
2018-05-07T01:47:37.588Z,15.87
2018-05-07T01:50:05.721Z,15.95
2018-05-07T01:52:33.842Z,15.94
2018-05-07T01:55:01.993Z,15.93
2018-05-07T01:57:30.101Z,15.86
2018-05-07T01:59:58.223Z,15.85
2018-05-07T02:02:26.349Z,15.86
2018-05-07T02:04:54.470Z,15.84
2018-05-07T02:07:22.585Z,15.87
2018-05-07T02:09:50.696Z,15.86
2018-05-07T02:12:18.807Z,15.66
2018-05-07T02:14:46.925Z,15.60
2018-05-07T02:17:15.045Z,15.68
2018-05-07T02:19:43.313Z,15.64
2018-05-07T02:22:11.428Z,15.70
2018-05-07T02:24:39.544Z,15.71
2018-05-07T02:27:07.698Z,15.75
2018-05-07T02:29:35.825Z,15.70
2018-05-07T02:32:03.937Z,15.65
2018-05-07T02:34:32.065Z,15.63
2018-05-07T02:37:00.181Z,15.59
2018-05-07T02:39:28.293Z,15.58
2018-05-07T02:41:56.429Z,15.51
2018-05-07T02:44:24.524Z,15.52
2018-05-07T02:46:52.650Z,15.52
2018-05-07T02:49:21.691Z,15.45
2018-05-07T02:51:49.810Z,15.43
2018-05-07T02:54:18.155Z,15.42
2018-05-07T02:56:46.267Z,15.43
2018-05-07T02:59:16.271Z,15.36
2018-05-07T03:01:44.386Z,15.39
2018-05-07T03:04:12.540Z,15.36
2018-05-07T03:06:40.654Z,15.40
2018-05-07T03:09:08.769Z,15.40
2018-05-07T03:11:36.909Z,15.37
2018-05-07T03:14:05.015Z,15.42
2018-05-07T03:16:33.129Z,15.42
2018-05-07T03:19:01.275Z,15.42
2018-05-07T03:21:29.405Z,15.41
2018-05-07T03:23:57.509Z,15.39
2018-05-07T03:26:25.637Z,15.36
2018-05-07T03:28:53.756Z,15.33
2018-05-07T03:31:21.888Z,15.30
2018-05-07T03:33:49.999Z,15.29
2018-05-07T03:36:18.141Z,15.28
2018-05-07T03:38:46.267Z,15.20
2018-05-07T03:41:14.375Z,15.17
2018-05-07T03:43:42.497Z,15.26
2018-05-07T03:46:10.644Z,15.18
2018-05-07T03:48:38.794Z,15.12
2018-05-07T03:51:06.905Z,15.18
2018-05-07T03:53:35.033Z,15.20
2018-05-07T03:56:03.351Z,15.22
2018-05-07T03:58:31.487Z,15.21
2018-05-07T04:00:59.601Z,15.23
2018-05-07T04:03:27.728Z,15.26
2018-05-07T04:05:56.701Z,15.25
2018-05-07T04:08:24.817Z,15.25
2018-05-07T04:10:52.945Z,15.25
2018-05-07T04:13:21.058Z,15.20
2018-05-07T04:15:49.177Z,15.20
2018-05-07T04:18:28.961Z,15.18
2018-05-07T04:24:04.571Z,15.18
2018-05-07T04:26:32.713Z,15.16
2018-05-07T04:29:00.804Z,15.13
2018-05-07T04:31:28.918Z,15.10
2018-05-07T04:33:57.052Z,15.10
2018-05-07T04:36:25.198Z,15.13
2018-05-07T04:38:53.315Z,15.17
2018-05-07T04:41:21.442Z,15.20
2018-05-07T04:43:49.553Z,15.21
2018-05-07T04:46:17.700Z,15.22
2018-05-07T04:48:45.844Z,15.28
2018-05-07T04:51:13.909Z,15.50
2018-05-07T04:53:42.076Z,15.43
2018-05-07T04:56:10.200Z,15.41
2018-05-07T04:58:38.299Z,15.41
2018-05-07T05:01:06.427Z,15.45
2018-05-07T05:03:34.548Z,15.48
2018-05-07T05:06:02.681Z,15.52
2018-05-07T05:08:30.806Z,15.55
2018-05-07T05:10:58.956Z,15.58
2018-05-07T05:13:27.069Z,15.57
2018-05-07T05:15:55.219Z,15.57
2018-05-07T05:18:23.337Z,15.61
2018-05-07T05:20:51.449Z,15.70
2018-05-07T05:23:19.743Z,15.74
2018-05-07T05:25:47.868Z,15.80
2018-05-07T05:28:15.989Z,15.80
2018-05-07T05:30:47.157Z,15.88
2018-05-07T05:33:15.299Z,15.94
2018-05-07T05:35:43.419Z,15.93
2018-05-07T05:38:11.549Z,15.99
2018-05-07T05:40:39.765Z,16.06
2018-05-07T05:43:07.884Z,16.13
2018-05-07T05:45:36.094Z,16.16
2018-05-07T05:48:04.295Z,16.21
2018-05-07T05:50:32.417Z,16.29
2018-05-07T05:53:03.588Z,16.35
2018-05-07T05:55:31.689Z,16.43
2018-05-07T05:57:59.805Z,16.46
2018-05-07T06:00:27.941Z,16.52
2018-05-07T06:02:56.065Z,16.64
2018-05-07T06:05:24.185Z,16.69
2018-05-07T06:07:52.313Z,16.61
2018-05-07T06:10:20.437Z,16.73
2018-05-07T06:12:48.568Z,16.76
2018-05-07T06:15:16.736Z,16.82
2018-05-07T06:17:44.819Z,16.86
2018-05-07T06:20:12.950Z,16.92
2018-05-07T06:22:41.099Z,16.98
2018-05-07T06:25:09.219Z,17.02
2018-05-07T06:27:37.338Z,17.12
2018-05-07T06:30:05.469Z,17.18
2018-05-07T06:32:33.619Z,17.22
2018-05-07T06:35:01.828Z,17.26
2018-05-07T06:37:29.957Z,17.31
2018-05-07T06:39:58.076Z,17.33
2018-05-07T06:42:26.170Z,17.42
2018-05-07T06:44:54.329Z,17.52
2018-05-07T06:47:22.442Z,17.57
2018-05-07T06:49:50.557Z,17.68
2018-05-07T06:52:18.683Z,17.87
2018-05-07T06:54:46.850Z,17.90
2018-05-07T06:57:14.957Z,18.10
2018-05-07T06:59:43.328Z,18.21
2018-05-07T07:02:11.584Z,18.28
2018-05-07T07:04:39.615Z,18.27
2018-05-07T07:07:08.069Z,18.24
2018-05-07T07:09:39.600Z,18.18
2018-05-07T07:12:07.707Z,18.20
2018-05-07T07:14:35.849Z,18.27
2018-05-07T07:17:03.973Z,18.34
2018-05-07T07:19:32.098Z,18.34
2018-05-07T07:22:00.263Z,18.40
2018-05-07T07:24:28.398Z,18.42
2018-05-07T07:26:56.511Z,18.48
2018-05-07T07:29:24.665Z,18.49
2018-05-07T07:31:52.803Z,18.53
2018-05-07T07:34:20.912Z,18.61
2018-05-07T07:36:49.059Z,18.61
2018-05-07T07:39:17.188Z,18.65
2018-05-07T07:41:45.315Z,18.66
2018-05-07T07:44:13.456Z,18.68
2018-05-07T07:46:41.573Z,18.72
2018-05-07T07:49:09.691Z,18.73
2018-05-07T07:51:37.807Z,18.74
2018-05-07T07:54:05.934Z,18.79
2018-05-07T07:56:34.027Z,18.82
2018-05-07T07:59:02.171Z,18.85
2018-05-07T08:01:30.281Z,18.89
2018-05-07T08:03:58.402Z,18.94
2018-05-07T08:06:26.506Z,19.02
2018-05-07T08:08:54.612Z,19.06
2018-05-07T08:11:22.748Z,19.08
2018-05-07T08:13:50.857Z,19.16
2018-05-07T08:16:18.973Z,19.22
2018-05-07T08:18:47.093Z,19.30
2018-05-07T08:21:15.234Z,19.40
2018-05-07T08:23:43.350Z,19.47
2018-05-07T08:26:11.461Z,19.56
2018-05-07T08:28:39.579Z,19.60
2018-05-07T08:31:07.696Z,19.69
2018-05-07T08:33:35.796Z,19.75
2018-05-07T08:36:03.911Z,19.77
2018-05-07T08:38:32.037Z,19.75
2018-05-07T08:41:00.134Z,19.82
2018-05-07T08:43:28.257Z,19.90
2018-05-07T08:45:56.373Z,19.96
2018-05-07T08:48:24.491Z,19.98
2018-05-07T08:50:52.662Z,20.03
2018-05-07T08:53:20.805Z,20.15
2018-05-07T08:55:48.933Z,20.34
2018-05-07T08:58:17.064Z,20.35
2018-05-07T09:00:45.208Z,20.42
2018-05-07T09:03:13.317Z,20.43
2018-05-07T09:05:41.464Z,20.44
2018-05-07T09:08:09.582Z,20.52
2018-05-07T09:10:37.703Z,20.65
2018-05-07T09:13:05.849Z,20.93
2018-05-07T09:15:33.987Z,21.01
2018-05-07T09:18:02.093Z,21.06
2018-05-07T09:20:30.225Z,20.91
2018-05-07T09:22:58.323Z,20.85
2018-05-07T09:25:26.455Z,20.92
2018-05-07T09:27:54.601Z,20.94
2018-05-07T09:30:26.102Z,20.99
2018-05-07T09:32:54.221Z,21.01
2018-05-07T09:35:22.346Z,21.02
2018-05-07T09:37:50.479Z,21.09
2018-05-07T09:40:18.579Z,21.15
2018-05-07T09:42:46.689Z,21.34
2018-05-07T09:45:14.863Z,21.39
2018-05-07T09:47:43.030Z,21.47
2018-05-07T09:50:11.199Z,21.53
2018-05-07T09:52:39.392Z,21.90
2018-05-07T09:55:07.976Z,21.90
2018-05-07T09:57:36.081Z,22.09
2018-05-07T10:00:04.283Z,22.14
2018-05-07T10:02:32.437Z,22.03
2018-05-07T10:05:00.528Z,21.94
2018-05-07T10:07:28.649Z,22.15
2018-05-07T10:09:56.764Z,22.21
2018-05-07T10:12:24.915Z,22.20
2018-05-07T10:14:53.105Z,22.15
2018-05-07T10:17:21.221Z,22.06
2018-05-07T10:19:49.344Z,21.92
2018-05-07T10:22:17.460Z,21.95
2018-05-07T10:24:45.566Z,22.01
2018-05-07T10:27:13.690Z,22.27
2018-05-07T10:29:41.784Z,22.29
2018-05-07T10:32:09.905Z,22.24
2018-05-07T10:34:38.234Z,22.34
2018-05-07T10:37:06.356Z,22.36
2018-05-07T10:39:34.464Z,22.45
2018-05-07T10:42:02.607Z,22.39
2018-05-07T10:44:30.721Z,22.44
2018-05-07T10:46:58.837Z,22.47
2018-05-07T10:49:26.960Z,22.72
2018-05-07T10:51:55.096Z,22.66
2018-05-07T10:54:23.214Z,22.71
2018-05-07T10:56:51.518Z,22.81
2018-05-07T10:59:19.891Z,23.19
2018-05-07T11:01:48.051Z,23.23
2018-05-07T11:04:16.335Z,23.29
2018-05-07T11:06:44.462Z,23.09
2018-05-07T11:09:13.227Z,22.95
2018-05-07T11:11:41.347Z,23.02
2018-05-07T11:14:09.446Z,23.05
2018-05-07T11:16:37.577Z,23.13
2018-05-07T11:19:05.720Z,23.25
2018-05-07T11:21:33.814Z,23.13
2018-05-07T11:24:01.934Z,23.07
2018-05-07T11:26:30.080Z,23.25
2018-05-07T11:28:58.198Z,23.48
2018-05-07T11:31:26.295Z,23.65
2018-05-07T11:33:54.449Z,23.52
2018-05-07T11:36:25.792Z,23.63
2018-05-07T11:38:53.923Z,23.59
2018-05-07T11:41:22.034Z,23.90
2018-05-07T11:43:50.171Z,23.92
2018-05-07T11:46:18.262Z,23.73
2018-05-07T11:48:46.386Z,23.62
2018-05-07T11:51:14.508Z,23.89
2018-05-07T11:53:42.628Z,23.81
2018-05-07T11:56:10.806Z,23.92
2018-05-07T11:58:38.931Z,24.00
2018-05-07T12:01:07.113Z,24.26
2018-05-07T12:03:35.177Z,24.65
2018-05-07T12:06:06.597Z,24.55
2018-05-07T12:08:34.740Z,24.60
2018-05-07T12:11:03.075Z,24.52
2018-05-07T12:13:31.193Z,24.42
2018-05-07T12:15:59.385Z,24.56
2018-05-07T12:18:27.437Z,24.35
2018-05-07T12:20:55.587Z,24.52
2018-05-07T12:23:23.684Z,24.95
2018-05-07T12:25:51.794Z,24.74
2018-05-07T12:28:19.894Z,24.78
2018-05-07T12:30:48.017Z,24.71
2018-05-07T12:33:16.159Z,24.82
2018-05-07T12:35:46.240Z,24.95
2018-05-07T12:38:14.364Z,25.34
2018-05-07T12:40:42.684Z,25.28
2018-05-07T12:43:10.818Z,25.47
2018-05-07T12:45:39.121Z,25.24
2018-05-07T12:48:07.925Z,25.11
2018-05-07T12:50:36.038Z,25.49
2018-05-07T12:53:04.155Z,25.37
2018-05-07T12:55:32.282Z,25.38
2018-05-07T12:58:00.373Z,25.48
2018-05-07T13:00:28.527Z,25.66
2018-05-07T13:02:56.651Z,25.81
2018-05-07T13:05:24.787Z,26.13
2018-05-07T13:07:52.939Z,26.09
2018-05-07T13:10:21.069Z,25.91
2018-05-07T13:12:49.192Z,25.93
2018-05-07T13:15:17.299Z,26.02
2018-05-07T13:17:45.451Z,25.72
2018-05-07T13:20:16.828Z,25.78
2018-05-07T13:22:44.937Z,25.81
2018-05-07T13:25:13.078Z,25.88
2018-05-07T13:27:41.179Z,25.89
2018-05-07T13:30:09.312Z,25.81
2018-05-07T13:32:37.447Z,25.88
2018-05-07T13:35:05.541Z,25.82
2018-05-07T13:37:33.642Z,25.88
2018-05-07T13:40:01.783Z,25.78
2018-05-07T13:42:29.910Z,25.87
2018-05-07T13:44:58.022Z,25.92
2018-05-07T13:47:26.149Z,25.75
2018-05-07T13:49:54.270Z,25.57
2018-05-07T13:52:22.409Z,25.58
2018-05-07T13:54:50.522Z,25.68
2018-05-07T13:57:18.726Z,25.83
2018-05-07T13:59:46.818Z,25.85
2018-05-07T14:02:14.945Z,25.76
2018-05-07T14:04:43.076Z,25.96
2018-05-07T14:07:11.200Z,25.91
2018-05-07T14:09:39.344Z,26.12
2018-05-07T14:12:08.339Z,26.01
2018-05-07T14:14:36.476Z,25.82
2018-05-07T14:17:04.589Z,25.79
2018-05-07T14:19:32.723Z,25.72
2018-05-07T14:22:00.858Z,25.68
2018-05-07T14:24:28.962Z,25.69
2018-05-07T14:26:57.066Z,25.77
2018-05-07T14:29:25.193Z,25.89
2018-05-07T14:31:53.327Z,26.01
2018-05-07T14:34:21.459Z,25.87
2018-05-07T14:36:49.590Z,25.83
2018-05-07T14:39:17.776Z,25.94
2018-05-07T14:41:45.965Z,25.89
2018-05-07T14:44:14.130Z,25.97
2018-05-07T14:46:42.313Z,26.00
2018-05-07T14:49:10.410Z,26.15
2018-05-07T14:51:38.524Z,25.99
2018-05-07T14:54:06.845Z,25.98
2018-05-07T14:56:34.975Z,25.96
2018-05-07T14:59:03.085Z,26.08
2018-05-07T15:01:31.235Z,26.06
2018-05-07T15:03:59.346Z,26.00
2018-05-07T15:06:27.464Z,25.84
2018-05-07T15:08:55.608Z,25.78
2018-05-07T15:11:23.776Z,25.83
2018-05-07T15:16:48.058Z,25.91
2018-05-07T15:19:16.191Z,25.82
2018-05-07T15:21:44.320Z,26.00
2018-05-07T15:24:15.883Z,26.18
2018-05-07T15:26:44.253Z,26.04
2018-05-07T15:29:12.414Z,26.15
2018-05-07T15:31:40.543Z,26.01
2018-05-07T15:34:08.651Z,25.76
2018-05-07T15:36:36.768Z,25.83
2018-05-07T15:39:05.826Z,25.75
2018-05-07T15:41:33.970Z,25.78
2018-05-07T15:44:02.090Z,25.78
2018-05-07T15:46:30.179Z,25.74
2018-05-07T15:48:58.294Z,25.76
2018-05-07T15:51:26.429Z,25.78
2018-05-07T15:53:54.539Z,25.79
2018-05-07T15:56:22.654Z,25.72
2018-05-07T15:58:50.768Z,25.96
2018-05-07T16:01:18.886Z,25.82
2018-05-07T16:03:47.017Z,25.68
2018-05-07T16:06:15.150Z,25.79
2018-05-07T16:08:43.319Z,25.76
2018-05-07T16:11:11.362Z,25.67
2018-05-07T16:13:39.499Z,25.63
2018-05-07T16:16:07.626Z,25.65
2018-05-07T16:18:35.775Z,25.71
2018-05-07T16:21:03.897Z,25.73
2018-05-07T16:23:32.206Z,25.65
2018-05-07T16:26:03.473Z,25.66
2018-05-07T16:28:31.589Z,25.67
2018-05-07T16:30:59.777Z,25.66
2018-05-07T16:33:27.852Z,25.63
2018-05-07T16:35:55.965Z,25.54
2018-05-07T16:38:24.070Z,25.45
2018-05-07T16:40:52.211Z,25.70
2018-05-07T16:43:20.345Z,25.55
2018-05-07T16:45:48.442Z,25.44
2018-05-07T16:48:16.575Z,25.55
2018-05-07T16:50:45.639Z,25.55
2018-05-07T16:53:13.796Z,25.65
2018-05-07T16:55:41.956Z,25.52
2018-05-07T16:58:10.101Z,25.44
2018-05-07T17:00:38.213Z,25.45
2018-05-07T17:03:06.339Z,25.40
2018-05-07T17:05:34.440Z,25.37
2018-05-07T17:08:02.592Z,25.37
2018-05-07T17:10:34.207Z,25.28
2018-05-07T17:13:02.327Z,25.29
2018-05-07T17:15:30.437Z,25.34
2018-05-07T17:18:02.131Z,25.42
2018-05-07T17:20:30.245Z,25.37
2018-05-07T17:22:58.356Z,25.30
2018-05-07T17:25:26.506Z,25.20
2018-05-07T17:27:54.633Z,25.15
2018-05-07T17:30:22.771Z,25.13
2018-05-07T17:32:50.955Z,25.10
2018-05-07T17:35:19.015Z,25.16
2018-05-07T17:37:47.129Z,25.12
2018-05-07T17:40:15.251Z,24.99
2018-05-07T17:42:43.379Z,24.99
2018-05-07T17:45:27.410Z,25.00
2018-05-07T17:48:07.362Z,24.92
2018-05-07T17:50:35.414Z,24.85
2018-05-07T17:53:03.529Z,24.75
2018-05-07T17:55:31.662Z,24.74
2018-05-07T17:57:59.799Z,24.73
2018-05-07T18:00:27.923Z,24.72
2018-05-07T18:02:56.068Z,24.64
2018-05-07T18:05:24.187Z,24.58
2018-05-07T18:07:52.300Z,24.56
2018-05-07T18:10:20.500Z,24.54
2018-05-07T18:12:48.548Z,24.42
2018-05-07T18:15:16.660Z,24.34
2018-05-07T18:17:46.705Z,24.23
2018-05-07T18:20:14.852Z,24.19
2018-05-07T18:22:42.946Z,24.18
2018-05-07T18:25:11.111Z,24.19
2018-05-07T18:27:39.213Z,24.11
2018-05-07T18:30:07.330Z,24.09
2018-05-07T18:32:35.462Z,24.01
2018-05-07T18:35:03.591Z,23.87
2018-05-07T18:37:31.712Z,23.78
2018-05-07T18:39:59.836Z,23.79
2018-05-07T18:42:27.961Z,23.75
2018-05-07T18:44:56.096Z,23.74
2018-05-07T18:47:24.223Z,23.65
2018-05-07T18:49:52.354Z,23.58
2018-05-07T18:52:20.474Z,23.51
2018-05-07T18:54:48.619Z,23.47
2018-05-07T18:57:16.895Z,23.45
2018-05-07T18:59:45.051Z,23.39
2018-05-07T19:02:13.185Z,23.35
2018-05-07T19:04:41.448Z,23.32
2018-05-07T19:07:09.616Z,23.30
2018-05-07T19:09:41.297Z,23.21
2018-05-07T19:12:09.402Z,23.14
2018-05-07T19:14:37.552Z,23.05
2018-05-07T19:17:05.693Z,22.99
2018-05-07T19:19:33.791Z,22.91
2018-05-07T19:22:03.795Z,22.84
2018-05-07T19:24:31.957Z,22.77
2018-05-07T19:27:00.075Z,22.79
2018-05-07T19:29:28.211Z,22.74
2018-05-07T19:31:56.318Z,22.71
2018-05-07T19:34:24.449Z,22.68
2018-05-07T19:36:52.595Z,22.65
2018-05-07T19:39:20.853Z,22.61
2018-05-07T19:41:48.981Z,22.54
2018-05-07T19:44:17.105Z,22.51
2018-05-07T19:46:45.220Z,22.49
2018-05-07T19:49:13.346Z,22.42
2018-05-07T19:51:41.479Z,22.38
2018-05-07T19:54:09.606Z,22.35
2018-05-07T19:56:37.702Z,22.31
2018-05-07T19:59:05.839Z,22.33
2018-05-07T20:01:33.968Z,22.29
2018-05-07T20:04:02.095Z,22.29
2018-05-07T20:06:30.209Z,22.34
2018-05-07T20:08:58.332Z,22.36
2018-05-07T20:11:26.468Z,22.36
2018-05-07T20:13:54.771Z,22.35
2018-05-07T20:16:22.876Z,22.32
2018-05-07T20:18:51.007Z,22.25
2018-05-07T20:21:19.126Z,22.21
2018-05-07T20:23:47.295Z,22.19
2018-05-07T20:26:15.458Z,22.16
2018-05-07T20:28:43.613Z,22.12
2018-05-07T20:31:11.754Z,22.08
2018-05-07T20:33:39.846Z,22.04
2018-05-07T20:36:08.028Z,22.01
2018-05-07T20:38:36.414Z,21.97
2018-05-07T20:41:04.506Z,21.93
2018-05-07T20:43:32.704Z,21.84
2018-05-07T20:46:00.895Z,21.80
2018-05-07T20:48:28.998Z,21.77
2018-05-07T20:50:57.160Z,21.74
2018-05-07T20:53:28.801Z,21.70
2018-05-07T20:55:56.917Z,21.70
2018-05-07T20:58:25.052Z,21.65
2018-05-07T21:00:53.179Z,21.56
2018-05-07T21:03:21.289Z,21.54
2018-05-07T21:05:49.409Z,21.50
2018-05-07T21:08:17.729Z,21.49
2018-05-07T21:10:45.880Z,21.35
2018-05-07T21:13:14.102Z,21.39
2018-05-07T21:15:45.390Z,21.43
2018-05-07T21:18:13.506Z,21.37
2018-05-07T21:20:41.657Z,21.33
2018-05-07T21:23:09.799Z,21.26
2018-05-07T21:25:37.933Z,21.20
2018-05-07T21:28:06.141Z,21.14
2018-05-07T21:30:34.270Z,21.07
2018-05-07T21:33:02.425Z,20.99
2018-05-07T21:35:31.466Z,20.92
2018-05-07T21:37:59.597Z,20.85
2018-05-07T21:40:27.719Z,20.79
2018-05-07T21:42:56.944Z,20.75
2018-05-07T21:45:25.065Z,20.72
2018-05-07T21:47:53.163Z,20.65
2018-05-07T21:50:21.594Z,20.62
2018-05-07T21:52:49.841Z,20.57
2018-05-07T21:55:17.949Z,20.52
2018-05-07T21:57:46.087Z,20.45
2018-05-07T22:00:14.413Z,20.40
2018-05-07T22:02:42.510Z,20.35
2018-05-07T22:05:10.633Z,20.29
2018-05-07T22:07:38.764Z,20.19
2018-05-07T22:10:06.883Z,20.14
2018-05-07T22:12:35.074Z,20.11
2018-05-07T22:15:03.523Z,20.12
2018-05-07T22:17:31.707Z,20.12
2018-05-07T22:19:59.835Z,20.11
2018-05-07T22:22:27.980Z,20.06
2018-05-07T22:24:56.113Z,20.00
2018-05-07T22:27:24.249Z,19.95
2018-05-07T22:29:52.369Z,19.96
2018-05-07T22:32:20.492Z,19.88
2018-05-07T22:34:48.640Z,19.88
2018-05-07T22:37:16.979Z,19.81
2018-05-07T22:39:45.119Z,19.84
2018-05-07T22:42:13.190Z,19.87
2018-05-07T22:44:41.346Z,19.92
2018-05-07T22:47:09.581Z,19.87
2018-05-07T22:49:37.754Z,19.84
2018-05-07T22:52:05.908Z,19.81
2018-05-07T22:54:34.043Z,19.83
2018-05-07T22:57:02.157Z,19.77
2018-05-07T22:59:30.280Z,19.68
2018-05-07T23:01:58.403Z,19.66
2018-05-07T23:04:26.517Z,19.57
2018-05-07T23:06:54.638Z,19.52
2018-05-07T23:09:22.749Z,19.48
2018-05-07T23:11:50.879Z,19.41
2018-05-07T23:14:19.407Z,19.35
2018-05-07T23:16:47.542Z,19.28
2018-05-07T23:19:15.666Z,19.26
2018-05-07T23:21:43.801Z,19.14
2018-05-07T23:24:11.913Z,18.98
2018-05-07T23:26:40.055Z,18.93
2018-05-07T23:29:08.182Z,18.84
2018-05-07T23:31:36.518Z,18.78
2018-05-07T23:34:04.631Z,18.73
2018-05-07T23:36:32.993Z,18.67
2018-05-07T23:39:01.121Z,18.63
2018-05-07T23:41:29.215Z,18.57
2018-05-07T23:43:57.349Z,18.46
2018-05-07T23:46:25.473Z,18.43
2018-05-07T23:48:53.589Z,18.36
2018-05-07T23:51:21.938Z,18.31
2018-05-07T23:53:50.030Z,18.34
2018-05-07T23:56:18.150Z,18.28
2018-05-07T23:58:46.295Z,18.31
